Share

Walnut Ridge, AR (72476)

Walnut Ridge Regional (KARG) Elev 272 ft | 36.12 °N, 90.93 °W | Change Station

Current weather conditions updated 16 minutes ago

Clear
Clear
50 °F
Feels Like 50 °F
N
6
Wind Variable Wind from North
Sunrise 6:24 AM
Sunset 7:41 PM
Moon Waning Gibbous

Today is forecast to be Warmer than yesterday.

Pressure 30.19 in
Visibility 10.0 miles
Clouds Clear
Dew Point 45 °F
Humidity 82%
Rainfall 0.00 in
Snow Depth Not available.
UV 0 out of 16
Pollen 9.70 out of 12
Air Quality Not available.
Flu Activity Sporadic
METAR KARG 201155Z AUTO 36005KT 10SM CLR 10/07 A3019 RMK AO1 10140 20100 52007

More Conditions Fewer Conditions

Pressure 30.19 in
Visibility 10.0 miles
Clouds Clear
Dew Point 45 °F
Humidity 82%
Rainfall 0.00 in
Snow Depth Not available.
UV 0 out of 16
Pollen 9.70 out of 12
Air Quality Not available.
Flu Activity Sporadic
METAR KARG 201155Z AUTO 36005KT 10SM CLR 10/07 A3019 RMK AO1 10140 20100 52007

More Conditions Fewer Conditions

10-Day Weather Forecast

Almanac

Astronomy

Apr. 20, 2014 Rise Set
Actual Time 6:24 AM CDT 7:41 PM CDT
Civil Twilight 5:57 AM CDT 8:08 PM CDT
Nautical Twilight 5:25 AM CDT 8:40 PM CDT
Astronomical Twilight 4:52 AM CDT 9:14 PM CDT
Moon 12:18 AM CDT 10:48 AM CDT
Length of Visible Light 14h 11m
Length of Day
13h 17m
Tomorrow will be 2m 7s longer.
Waning Gibbous, 70% of the Moon is Illuminated
Today
Waning Gibbous
Apr 22
Last Quarter
Apr 29
New
May 6
First Quarter
May 14
Full

Today's Extremes

State Highs State Lows

Community

  • Easter Greetings
    Easter Greetings
  • Sunny day at the coast-Cape Arago Lighthouse
    Sunny day at the coast-Cape Arago Lighthouse
  • Cherry Blossoms
    Cherry Blossoms
  • White-Crowned Sparrow
    White-Crowned Sparrow
  • New Day
    New Day

WunderPhotos

Upload Photos

1,703,174 photos uploaded!

Nearby

Snow Depth

Station Depth Elevation
No new snow has been reported.

Coastal Water Temperatures

Place Temperature
No Stations Reporting

Earthquake Activity

City Distance Mag. Time & Date
No recent earthquake activity has been reported nearby.
Minimum magnitude displayed is 2.5.

Nearby Weather Stations

Station Location Temp. Dew Point Humidity Wind Precip. Elev Updated Type
MesoWest OKEAN , O'Kean, AR 51 °F - - North  at  - 0.00 in / hr 274 ft 5:35 AM CDT MADIS
Rural Ravenden Springs, Ravenden Springs, AR 53.6 °F 26 °F 34% SE  at  0.0 mph 0.00 in / hr 605 ft 7:11 AM CDT Rapid Fire
MesoWest JNSBRO , Jonesboro, AR 53 °F - - North  at  - 0.00 in / hr 285 ft 5:30 AM CDT MADIS

Show More Stations Show Fewer Stations

What do you think?

We're not finished. Please let us know what you like, what you don't like, and what you are still missing.